Time;durP1;ratioP1;P1;durP2;ratioP2;P2;SDS_P1;SDS_P2;PMS_P1;PMS_P2;Temp;Humidity;BMP_temperature;BMP_pressure;BME280_temperature;BME280_humidity;BME280_pressure;Samples;Min_cycle;Max_cycle;Signal;HPM_P1;HPM_P2
2023/03/15 00:00:09;;;;;;;7.93;1.47;;;0.80;99.90;;;;;;4984773;28;20216;-81
2023/03/15 00:02:35;;;;;;;4.57;2.03;;;0.80;99.90;;;;;;4984588;28;20223;-76
2023/03/15 00:05:03;;;;;;;8.47;1.60;;;0.80;99.90;;;;;;4988523;28;20246;-76
2023/03/15 00:07:30;;;;;;;7.00;1.50;;;0.70;99.90;;;;;;4984859;28;20228;-76
2023/03/15 00:09:58;;;;;;;4.07;1.37;;;0.70;99.90;;;;;;4988925;28;20628;-75
2023/03/15 00:12:25;;;;;;;3.80;1.43;;;0.70;99.90;;;;;;4987231;28;20236;-76
2023/03/15 00:14:52;;;;;;;5.03;1.47;;;0.60;99.90;;;;;;4987261;28;20276;-77
2023/03/15 00:17:21;;;;;;;3.83;1.30;;;0.60;99.90;;;;;;4987026;28;20250;-76
2023/03/15 00:19:48;;;;;;;5.90;1.17;;;0.60;99.90;;;;;;5000190;28;20248;-75
2023/03/15 00:22:15;;;;;;;5.83;1.93;;;0.60;99.90;;;;;;4988718;28;20217;-76
2023/03/15 00:24:42;;;;;;;4.47;1.43;;;0.60;99.90;;;;;;4985663;28;20239;-76
2023/03/15 00:27:11;;;;;;;4.80;1.23;;;0.60;99.90;;;;;;4983464;28;20239;-76
2023/03/15 00:29:37;;;;;;;5.40;1.40;;;0.60;99.90;;;;;;4999256;28;20294;-76
2023/03/15 00:32:04;;;;;;;5.13;1.20;;;0.70;99.90;;;;;;4987183;28;20233;-76
2023/03/15 00:34:32;;;;;;;4.03;1.10;;;0.70;99.90;;;;;;4987241;28;20231;-76
2023/03/15 00:36:59;;;;;;;5.00;1.20;;;0.70;99.90;;;;;;4980239;28;20224;-74
2023/03/15 00:39:26;;;;;;;2.93;1.07;;;0.60;99.90;;;;;;4981555;28;20232;-75
2023/03/15 00:41:55;;;;;;;7.77;1.30;;;0.60;99.90;;;;;;4978060;28;20238;-74
2023/03/15 00:44:24;;;;;;;4.27;1.10;;;0.60;99.90;;;;;;4984148;28;20262;-75
2023/03/15 00:46:50;;;;;;;5.03;1.17;;;0.60;99.90;;;;;;4983947;28;20305;-75
2023/03/15 00:49:18;;;;;;;6.60;1.20;;;0.60;99.90;;;;;;4979254;28;20237;-75
2023/03/15 00:51:44;;;;;;;2.97;1.13;;;0.50;99.90;;;;;;4980216;28;20214;-75
2023/03/15 00:54:12;;;;;;;3.53;1.20;;;0.50;99.90;;;;;;4982062;28;20461;-75
2023/03/15 00:56:40;;;;;;;5.63;1.30;;;0.50;99.90;;;;;;4990388;28;20230;-75
2023/03/15 00:59:07;;;;;;;3.83;1.30;;;0.50;99.90;;;;;;4987747;28;20312;-75
2023/03/15 01:01:37;;;;;;;4.50;1.60;;;0.50;99.90;;;;;;4984779;28;20227;-75
2023/03/15 01:04:04;;;;;;;7.47;2.13;;;0.50;99.90;;;;;;4983840;28;20318;-75
2023/03/15 01:06:32;;;;;;;5.47;1.70;;;0.60;99.90;;;;;;4989896;28;20230;-76
2023/03/15 01:09:00;;;;;;;2.93;1.40;;;0.50;99.90;;;;;;4983026;28;20226;-75
2023/03/15 01:11:28;;;;;;;6.67;1.70;;;0.50;99.90;;;;;;4984186;28;20230;-76
2023/03/15 01:13:58;;;;;;;10.17;1.77;;;0.50;99.90;;;;;;4983519;28;20230;-75
2023/03/15 01:16:25;;;;;;;6.77;2.10;;;0.50;99.90;;;;;;4982360;28;20746;-75
2023/03/15 01:18:54;;;;;;;10.47;1.77;;;0.60;99.90;;;;;;4987313;28;20274;-74
2023/03/15 01:21:22;;;;;;;2.90;1.63;;;0.60;99.90;;;;;;4982655;28;20791;-75
2023/03/15 01:23:49;;;;;;;4.03;1.77;;;0.60;99.90;;;;;;4977694;28;20734;-75
2023/03/15 01:26:17;;;;;;;5.67;1.83;;;0.60;99.90;;;;;;4982972;28;20313;-76
2023/03/15 01:28:44;;;;;;;4.63;1.63;;;0.60;99.90;;;;;;5004253;28;20217;-75
2023/03/15 01:31:16;;;;;;;6.00;1.80;;;0.60;99.90;;;;;;4985582;28;20227;-77
2023/03/15 01:33:44;;;;;;;4.83;2.17;;;0.60;99.90;;;;;;4985677;28;20214;-76
2023/03/15 01:36:12;;;;;;;4.87;2.00;;;0.60;99.90;;;;;;4985265;28;20822;-76
2023/03/15 01:38:40;;;;;;;5.97;1.70;;;0.60;99.90;;;;;;4987437;28;20221;-76
2023/03/15 01:41:07;;;;;;;3.80;1.80;;;0.60;99.90;;;;;;4984171;28;20223;-76
2023/03/15 01:43:34;;;;;;;5.17;2.07;;;0.50;99.90;;;;;;4987309;28;20223;-76
2023/03/15 01:46:34;;;;;;;5.53;2.63;;;0.50;99.90;;;;;;4989868;28;20925;-76
2023/03/15 01:49:17;;;;;;;6.23;2.07;;;0.60;99.90;;;;;;4924446;29;20244;-76
2023/03/15 01:51:51;;;;;;;4.47;2.03;;;0.60;99.90;;;;;;4923647;29;20227;-76
2023/03/15 01:54:23;;;;;;;3.33;2.23;;;0.70;99.90;;;;;;4969333;28;20225;-76
2023/03/15 01:56:56;;;;;;;4.93;2.70;;;0.70;99.90;;;;;;4986353;28;20923;-76
2023/03/15 01:59:27;;;;;;;7.90;2.30;;;0.80;99.90;;;;;;4981419;28;20246;-76
2023/03/15 02:01:55;;;;;;;4.77;2.17;;;0.80;99.90;;;;;;5000695;28;20218;-76
2023/03/15 02:04:26;;;;;;;5.67;2.03;;;0.80;99.90;;;;;;4983917;28;20219;-75
2023/03/15 02:06:59;;;;;;;6.20;2.10;;;0.80;99.90;;;;;;4982933;28;20313;-75
2023/03/15 02:09:35;;;;;;;4.20;2.43;;;0.90;99.90;;;;;;4988327;28;20309;-76
2023/03/15 02:12:04;;;;;;;4.93;2.40;;;0.90;99.90;;;;;;5002120;28;20223;-76
2023/03/15 02:14:33;;;;;;;6.20;3.03;;;0.90;99.90;;;;;;4981540;28;20282;-76
2023/03/15 02:17:01;;;;;;;7.07;2.90;;;0.90;99.90;;;;;;4983636;28;20231;-76
2023/03/15 02:19:39;;;;;;;6.40;3.00;;;1.00;99.90;;;;;;5002321;28;21460;-76
2023/03/15 02:22:18;;;;;;;5.70;3.10;;;1.00;99.90;;;;;;4986110;28;20262;-76
2023/03/15 02:24:52;;;;;;;4.93;2.97;;;1.00;99.90;;;;;;5004536;28;20237;-76
2023/03/15 02:27:27;;;;;;;5.03;3.27;;;1.00;99.90;;;;;;5007278;28;20231;-76
2023/03/15 02:29:53;;;;;;;5.40;3.30;;;1.00;99.90;;;;;;4987885;28;20224;-76
2023/03/15 02:32:20;;;;;;;5.10;2.60;;;1.00;99.90;;;;;;4983481;28;20220;-76
2023/03/15 02:34:49;;;;;;;3.30;2.83;;;1.00;99.90;;;;;;4982320;28;20440;-76
2023/03/15 02:37:16;;;;;;;6.33;2.90;;;1.00;99.90;;;;;;4986645;28;20302;-76
2023/03/15 02:39:43;;;;;;;5.20;2.87;;;1.00;99.90;;;;;;4987431;28;20708;-76
2023/03/15 02:42:13;;;;;;;4.90;2.67;;;1.00;99.90;;;;;;4984101;28;20318;-76
2023/03/15 02:44:44;;;;;;;5.70;2.53;;;1.00;99.90;;;;;;4989585;28;20226;-76
2023/03/15 02:47:18;;;;;;;4.83;2.47;;;1.00;99.90;;;;;;4978568;28;20961;-77
2023/03/15 02:49:49;;;;;;;4.00;2.97;;;1.00;99.90;;;;;;4982384;28;20766;-77
2023/03/15 02:52:16;;;;;;;5.53;2.37;;;1.00;99.90;;;;;;4983141;28;20231;-77
2023/03/15 02:54:43;;;;;;;4.80;2.70;;;1.00;99.90;;;;;;4994956;28;20228;-77
2023/03/15 02:57:10;;;;;;;4.70;2.50;;;1.00;99.90;;;;;;4978416;28;20377;-77
2023/03/15 02:59:37;;;;;;;4.23;2.40;;;1.00;99.90;;;;;;4981536;28;20243;-77
2023/03/15 03:02:06;;;;;;;4.50;2.17;;;1.00;99.90;;;;;;4980654;28;20308;-77
2023/03/15 03:04:34;;;;;;;3.60;2.10;;;1.00;99.90;;;;;;4985741;28;20294;-76
2023/03/15 03:07:01;;;;;;;3.87;2.13;;;1.00;99.90;;;;;;4981263;28;20269;-76
2023/03/15 03:09:34;;;;;;;3.63;2.63;;;1.00;99.90;;;;;;4983466;28;20598;-77
2023/03/15 03:12:01;;;;;;;5.27;2.30;;;1.10;99.90;;;;;;4984438;28;20216;-77
2023/03/15 03:14:30;;;;;;;3.87;2.47;;;1.10;99.90;;;;;;4986919;28;20218;-77
2023/03/15 03:16:57;;;;;;;4.43;2.60;;;1.10;99.90;;;;;;4999020;28;20240;-77
2023/03/15 03:19:25;;;;;;;4.80;2.60;;;1.10;99.90;;;;;;4983116;28;20253;-77
2023/03/15 03:21:52;;;;;;;4.77;2.40;;;1.10;99.90;;;;;;4983951;28;20257;-76
2023/03/15 03:24:19;;;;;;;5.83;2.47;;;1.10;99.90;;;;;;4980949;28;20231;-76
2023/03/15 03:26:46;;;;;;;4.50;2.20;;;1.10;99.90;;;;;;4979474;28;20230;-76
2023/03/15 03:29:15;;;;;;;6.53;2.43;;;1.10;99.90;;;;;;4981069;28;20221;-76
2023/03/15 03:31:43;;;;;;;5.73;2.30;;;1.10;99.90;;;;;;4978424;28;20261;-76
2023/03/15 03:34:13;;;;;;;3.87;2.03;;;1.00;99.90;;;;;;4984428;28;20303;-76
2023/03/15 03:36:41;;;;;;;3.57;2.30;;;1.00;99.90;;;;;;4980329;28;20234;-76
2023/03/15 03:39:08;;;;;;;4.17;2.43;;;1.10;99.90;;;;;;4996967;28;20225;-77
2023/03/15 03:41:36;;;;;;;5.27;2.70;;;0.90;99.90;;;;;;4980129;28;20703;-76
2023/03/15 03:44:03;;;;;;;2.87;2.27;;;1.00;99.90;;;;;;4977867;28;20220;-77
2023/03/15 03:46:30;;;;;;;6.57;2.47;;;1.00;99.90;;;;;;4995957;28;20828;-77
2023/03/15 03:48:57;;;;;;;3.03;2.27;;;1.00;99.90;;;;;;4974850;28;20277;-76
2023/03/15 03:51:24;;;;;;;4.63;2.50;;;1.00;99.90;;;;;;4980612;28;20239;-77
2023/03/15 03:53:52;;;;;;;7.03;2.77;;;1.00;99.90;;;;;;4980668;28;20222;-77
2023/03/15 03:56:19;;;;;;;4.43;2.80;;;1.00;99.90;;;;;;4996904;28;20325;-77
2023/03/15 03:58:46;;;;;;;5.87;2.40;;;1.00;99.90;;;;;;4981792;28;20222;-77
2023/03/15 04:01:21;;;;;;;6.53;2.83;;;1.00;99.90;;;;;;4983503;28;20633;-77
2023/03/15 04:03:51;;;;;;;5.50;3.33;;;1.00;99.90;;;;;;4987951;28;20905;-77
2023/03/15 04:06:21;;;;;;;6.57;3.13;;;1.00;99.90;;;;;;4981078;28;20819;-78
2023/03/15 04:08:48;;;;;;;5.57;2.60;;;1.10;99.90;;;;;;4982421;28;20218;-77
2023/03/15 04:11:25;;;;;;;6.27;2.67;;;1.00;99.90;;;;;;4984799;28;20235;-76
2023/03/15 04:13:56;;;;;;;7.80;2.83;;;1.10;99.90;;;;;;4985818;28;20222;-76
2023/03/15 04:16:23;;;;;;;4.33;2.40;;;1.10;99.90;;;;;;4987731;28;20230;-76
2023/03/15 04:18:59;;;;;;;5.87;2.73;;;1.10;99.90;;;;;;4984277;28;20275;-76
2023/03/15 04:21:30;;;;;;;3.90;2.43;;;1.10;99.90;;;;;;4995470;28;20251;-76
2023/03/15 04:24:00;;;;;;;7.67;2.40;;;1.00;99.90;;;;;;4987228;28;20324;-76
2023/03/15 04:26:56;;;;;;;3.80;2.27;;;1.00;99.90;;;;;;4953161;28;20224;-76
2023/03/15 04:29:43;;;;;;;12.13;2.53;;;1.00;99.90;;;;;;4982784;28;20239;-77
2023/03/15 04:32:19;;;;;;;15.33;3.00;;;1.00;99.90;;;;;;4984665;28;20232;-77
2023/03/15 04:35:16;;;;;;;5.90;2.77;;;1.00;99.90;;;;;;4932466;28;20238;-77
2023/03/15 04:37:52;;;;;;;4.67;2.73;;;0.90;99.90;;;;;;4984742;28;20247;-77
2023/03/15 04:40:35;;;;;;;4.67;2.30;;;0.90;99.90;;;;;;4984920;28;20240;-77
2023/03/15 04:43:18;;;;;;;19.00;3.20;;;0.80;99.90;;;;;;4985781;28;21076;-77
2023/03/15 04:46:12;;;;;;;7.17;2.67;;;0.70;99.90;;;;;;4976897;28;20228;-78
2023/03/15 04:49:03;;;;;;;5.43;2.70;;;0.70;99.90;;;;;;4980486;28;20221;-78
2023/03/15 04:51:56;;;;;;;5.63;2.70;;;0.60;99.90;;;;;;4988120;28;20704;-78
2023/03/15 04:55:02;;;;;;;5.67;2.40;;;0.50;99.90;;;;;;4948889;28;20225;-77
2023/03/15 04:57:48;;;;;;;5.07;2.40;;;0.50;99.90;;;;;;4945519;28;20237;-78
2023/03/15 05:00:45;;;;;;;6.17;2.87;;;0.40;99.90;;;;;;4974862;28;20222;-77
2023/03/15 05:03:31;;;;;;;7.00;2.50;;;0.30;99.90;;;;;;4993838;28;20412;-77
2023/03/15 05:06:07;;;;;;;5.90;2.73;;;0.20;99.90;;;;;;4990286;28;20215;-76
2023/03/15 05:08:53;;;;;;;6.87;2.90;;;0.20;99.90;;;;;;4992503;28;20229;-78
2023/03/15 05:11:32;;;;;;;21.23;3.70;;;0.10;99.90;;;;;;4990036;28;20230;-77
2023/03/15 05:14:14;;;;;;;5.37;3.00;;;0.00;99.90;;;;;;4986138;28;20229;-77
2023/03/15 05:17:09;;;;;;;34.80;4.43;;;-0.10;99.90;;;;;;4979775;28;20586;-76
2023/03/15 05:19:52;;;;;;;11.87;3.00;;;-0.10;99.90;;;;;;4985655;28;20301;-77
2023/03/15 05:22:30;;;;;;;5.53;2.77;;;-0.20;99.90;;;;;;4985450;28;20691;-77
2023/03/15 05:25:15;;;;;;;22.07;4.13;;;-0.20;99.90;;;;;;4987483;28;20230;-78
2023/03/15 05:28:03;;;;;;;6.10;3.20;;;-0.20;99.90;;;;;;4990890;28;20587;-76
2023/03/15 05:31:05;;;;;;;55.00;6.83;;;-0.30;99.90;;;;;;4967598;28;20271;-78
2023/03/15 05:33:53;;;;;;;7.30;3.47;;;-0.30;99.90;;;;;;4994698;28;20242;-77
2023/03/15 05:36:46;;;;;;;9.17;3.63;;;-0.20;99.90;;;;;;4968549;28;20345;-78
2023/03/15 05:39:33;;;;;;;15.63;4.43;;;-0.20;99.90;;;;;;4987965;28;20228;-77
2023/03/15 05:42:12;;;;;;;34.43;6.03;;;-0.20;99.90;;;;;;5003345;28;20602;-79
2023/03/15 05:44:58;;;;;;;89.77;10.67;;;-0.10;99.90;;;;;;4989719;28;20226;-78
2023/03/15 05:47:43;;;;;;;66.50;10.03;;;-0.10;99.90;;;;;;4983084;28;20910;-79
2023/03/15 05:50:33;;;;;;;27.07;8.60;;;0.00;99.90;;;;;;4987928;28;20259;-78
2023/03/15 05:53:12;;;;;;;25.57;8.13;;;0.00;99.90;;;;;;4985148;28;20630;-78
2023/03/15 05:56:00;;;;;;;15.50;7.57;;;0.10;99.90;;;;;;4984638;28;20226;-78
2023/03/15 05:58:52;;;;;;;24.30;9.33;;;0.20;99.90;;;;;;4988339;28;20220;-78
2023/03/15 06:01:39;;;;;;;38.13;10.17;;;0.20;99.90;;;;;;4978522;28;20219;-78
2023/03/15 06:04:14;;;;;;;62.70;11.50;;;0.30;99.90;;;;;;4981195;28;20212;-80
2023/03/15 06:06:42;;;;;;;14.87;8.97;;;0.30;99.90;;;;;;4988232;28;20226;-81
2023/03/15 06:09:10;;;;;;;75.37;12.43;;;0.40;99.90;;;;;;4994987;28;20227;-81
2023/03/15 06:11:38;;;;;;;13.50;8.23;;;0.50;99.90;;;;;;4985197;28;20270;-81
2023/03/15 06:14:05;;;;;;;17.17;9.10;;;0.50;99.90;;;;;;4981656;28;20239;-80
2023/03/15 06:16:41;;;;;;;45.63;9.67;;;0.50;99.90;;;;;;4992452;28;20308;-82
2023/03/15 06:19:08;;;;;;;47.03;9.97;;;0.60;99.90;;;;;;4989333;28;20729;-83
2023/03/15 06:21:35;;;;;;;15.10;7.97;;;0.60;99.90;;;;;;4990392;28;20233;-80
2023/03/15 06:24:06;;;;;;;21.33;8.10;;;0.60;99.90;;;;;;4986436;28;20228;-79
2023/03/15 06:26:34;;;;;;;29.93;8.80;;;0.60;99.90;;;;;;5002253;28;20297;-79
2023/03/15 06:29:03;;;;;;;21.17;8.03;;;0.70;99.90;;;;;;4983305;28;20279;-79
2023/03/15 06:31:30;;;;;;;11.17;8.30;;;0.70;99.90;;;;;;4980557;28;20940;-80
2023/03/15 06:34:02;;;;;;;11.67;7.77;;;0.80;99.90;;;;;;5000792;28;21008;-77
2023/03/15 06:36:30;;;;;;;10.23;7.30;;;0.80;99.90;;;;;;4982899;28;20230;-78
2023/03/15 06:38:56;;;;;;;11.37;7.23;;;0.90;99.90;;;;;;4982502;28;20739;-78
2023/03/15 06:41:25;;;;;;;14.93;7.13;;;0.90;99.90;;;;;;5000117;28;20247;-78
2023/03/15 06:43:57;;;;;;;9.40;6.40;;;1.00;99.90;;;;;;5005694;28;20305;-78
2023/03/15 06:46:25;;;;;;;11.43;6.93;;;1.00;99.90;;;;;;4977643;28;20231;-78
2023/03/15 06:48:51;;;;;;;8.43;6.67;;;1.00;99.90;;;;;;4980793;28;20872;-78
2023/03/15 06:51:20;;;;;;;12.30;6.83;;;1.00;99.90;;;;;;4986193;28;20308;-78
2023/03/15 06:53:47;;;;;;;22.00;7.10;;;1.10;99.90;;;;;;4983603;28;20865;-77
2023/03/15 06:56:15;;;;;;;11.80;7.23;;;1.10;99.90;;;;;;4991765;28;20250;-78
2023/03/15 06:58:43;;;;;;;11.87;8.07;;;1.20;99.90;;;;;;4989287;28;20735;-78
2023/03/15 07:01:12;;;;;;;13.67;7.77;;;1.30;99.90;;;;;;4972050;28;20237;-78
2023/03/15 07:03:39;;;;;;;10.93;7.50;;;1.40;99.90;;;;;;4982974;28;20223;-79
2023/03/15 07:06:05;;;;;;;11.40;8.27;;;1.50;99.90;;;;;;4987068;28;20231;-77
2023/03/15 07:08:32;;;;;;;10.77;8.30;;;1.70;99.90;;;;;;4990942;28;20219;-78
2023/03/15 07:10:59;;;;;;;14.50;9.00;;;1.90;99.90;;;;;;4989511;28;20228;-78
2023/03/15 07:13:26;;;;;;;15.73;9.13;;;2.10;99.90;;;;;;4984052;28;20232;-77
2023/03/15 07:15:55;;;;;;;16.97;10.77;;;2.20;99.90;;;;;;4991997;28;20227;-77
2023/03/15 07:18:22;;;;;;;14.13;9.40;;;2.20;99.90;;;;;;4983698;28;20228;-77
2023/03/15 07:20:55;;;;;;;15.57;8.93;;;2.40;99.90;;;;;;4982624;28;20235;-78
2023/03/15 07:23:22;;;;;;;13.23;9.17;;;2.50;99.90;;;;;;4985417;28;20239;-78
2023/03/15 07:25:49;;;;;;;14.73;9.07;;;2.50;99.90;;;;;;4984450;28;20398;-78
2023/03/15 07:28:42;;;;;;;12.07;8.40;;;2.50;99.90;;;;;;4985163;28;20328;-78
2023/03/15 07:31:11;;;;;;;12.97;8.00;;;2.60;99.90;;;;;;4978767;28;20275;-78
2023/03/15 07:33:38;;;;;;;14.37;8.57;;;2.60;99.90;;;;;;4984864;28;20226;-78
2023/03/15 07:36:06;;;;;;;12.97;8.03;;;2.50;99.90;;;;;;4982415;28;20233;-78
2023/03/15 07:38:34;;;;;;;15.83;8.80;;;2.50;99.90;;;;;;4985136;28;20720;-78
2023/03/15 07:41:02;;;;;;;15.63;8.10;;;2.40;99.90;;;;;;4990251;28;20748;-78
2023/03/15 07:43:29;;;;;;;10.80;6.67;;;2.40;99.90;;;;;;4982066;28;20226;-77
2023/03/15 07:46:07;;;;;;;20.50;6.63;;;2.30;99.90;;;;;;4989154;28;20321;-78
2023/03/15 07:48:35;;;;;;;8.67;5.57;;;2.10;99.90;;;;;;4993218;28;20560;-79
2023/03/15 07:51:02;;;;;;;12.40;5.97;;;2.00;99.90;;;;;;4988518;28;20221;-79
2023/03/15 07:53:28;;;;;;;9.00;5.93;;;1.90;99.90;;;;;;4988488;28;20716;-77
2023/03/15 07:55:55;;;;;;;10.20;5.97;;;1.80;99.90;;;;;;4987391;28;20226;-77
2023/03/15 07:58:22;;;;;;;7.93;5.90;;;1.70;99.90;;;;;;4987712;28;20301;-77
2023/03/15 08:00:49;;;;;;;8.83;6.17;;;1.70;99.90;;;;;;4989562;28;20217;-78
2023/03/15 08:03:16;;;;;;;31.47;7.00;;;1.60;99.90;;;;;;4984924;28;20225;-77
2023/03/15 08:05:44;;;;;;;8.50;5.40;;;1.60;99.90;;;;;;4994754;28;20330;-78
2023/03/15 08:08:11;;;;;;;8.87;5.70;;;1.50;99.90;;;;;;4986099;28;20264;-78
2023/03/15 08:10:37;;;;;;;9.07;5.80;;;1.50;99.90;;;;;;4989175;28;20224;-78
2023/03/15 08:13:04;;;;;;;8.03;5.60;;;1.50;99.90;;;;;;4997223;28;20743;-77
2023/03/15 08:15:30;;;;;;;8.37;5.40;;;1.60;99.90;;;;;;4994525;28;20238;-79
2023/03/15 08:17:58;;;;;;;7.77;5.50;;;1.60;99.90;;;;;;4993085;28;20229;-78
2023/03/15 08:20:25;;;;;;;10.17;5.60;;;1.60;99.90;;;;;;4992726;28;20302;-77
2023/03/15 08:22:53;;;;;;;7.17;5.37;;;1.60;99.90;;;;;;4991942;28;20228;-78
2023/03/15 08:25:23;;;;;;;10.70;6.60;;;1.70;99.90;;;;;;4989829;28;20242;-79
2023/03/15 08:27:50;;;;;;;9.47;5.27;;;1.80;99.90;;;;;;5005693;28;20260;-79
2023/03/15 08:30:19;;;;;;;4.93;3.77;;;2.10;99.90;;;;;;4992171;28;20218;-78
2023/03/15 08:32:48;;;;;;;7.50;3.93;;;2.40;99.90;;;;;;4986707;28;20228;-79
2023/03/15 08:35:16;;;;;;;4.90;3.13;;;2.80;99.90;;;;;;4985791;28;20247;-78
2023/03/15 08:37:46;;;;;;;4.83;3.00;;;3.10;99.90;;;;;;4981649;28;20225;-78
2023/03/15 08:40:17;;;;;;;4.60;2.63;;;3.40;99.90;;;;;;4988138;28;20229;-78
2023/03/15 08:42:45;;;;;;;3.27;2.17;;;3.80;99.90;;;;;;4989278;28;20733;-78
2023/03/15 08:45:12;;;;;;;5.00;2.40;;;4.30;99.90;;;;;;4984397;28;20228;-79
2023/03/15 08:47:38;;;;;;;3.87;2.37;;;4.80;99.90;;;;;;4988091;28;20233;-79
2023/03/15 08:50:08;;;;;;;4.50;2.17;;;5.30;99.90;;;;;;4987243;28;20321;-80
2023/03/15 08:52:35;;;;;;;3.23;1.70;;;5.80;99.90;;;;;;4991103;28;20229;-79
2023/03/15 08:55:02;;;;;;;3.93;2.07;;;6.30;99.90;;;;;;4992514;28;20214;-78
2023/03/15 08:57:32;;;;;;;4.87;1.57;;;6.60;99.90;;;;;;4988336;28;20909;-80
2023/03/15 08:59:59;;;;;;;3.60;1.67;;;6.90;99.90;;;;;;4989524;28;20281;-80
2023/03/15 09:02:25;;;;;;;2.40;1.60;;;7.00;99.90;;;;;;4983363;28;20230;-79
2023/03/15 09:04:52;;;;;;;4.63;1.90;;;7.10;99.90;;;;;;4991725;28;20218;-78
2023/03/15 09:07:20;;;;;;;2.63;1.30;;;7.10;99.90;;;;;;4990938;28;20604;-79
2023/03/15 09:09:47;;;;;;;5.47;1.60;;;7.20;99.90;;;;;;4988228;28;20840;-78
2023/03/15 09:12:15;;;;;;;5.20;1.97;;;7.30;99.90;;;;;;4988049;28;20224;-78
2023/03/15 09:14:44;;;;;;;5.83;1.83;;;7.50;99.90;;;;;;4983152;28;20259;-78
2023/03/15 09:17:10;;;;;;;3.13;1.60;;;7.60;99.90;;;;;;5009672;28;20238;-78
2023/03/15 09:19:38;;;;;;;4.13;1.90;;;7.80;99.90;;;;;;4986905;28;20224;-78
2023/03/15 09:22:04;;;;;;;6.60;1.80;;;7.90;99.90;;;;;;4997880;28;20234;-79
2023/03/15 09:24:31;;;;;;;3.67;1.77;;;8.00;99.90;;;;;;4998625;28;20227;-79
2023/03/15 09:26:58;;;;;;;2.70;1.50;;;7.80;99.90;;;;;;4991041;28;20230;-80
2023/03/15 09:29:25;;;;;;;3.87;1.30;;;7.60;99.90;;;;;;4976319;28;20225;-79
2023/03/15 09:31:53;;;;;;;3.00;1.40;;;7.10;99.90;;;;;;4976323;28;20608;-79
2023/03/15 09:34:19;;;;;;;1.87;0.90;;;6.70;99.90;;;;;;4983789;28;20254;-79
2023/03/15 09:36:51;;;;;;;4.60;1.27;;;6.10;99.90;;;;;;4974912;28;20236;-80
2023/03/15 09:39:19;;;;;;;3.57;0.90;;;5.60;99.90;;;;;;4984468;28;20249;-80
2023/03/15 09:41:48;;;;;;;1.93;0.70;;;5.10;99.90;;;;;;5009094;28;20256;-77
2023/03/15 09:44:26;;;;;;;2.73;0.80;;;4.60;99.90;;;;;;5011047;28;20259;-78
2023/03/15 09:47:08;;;;;;;2.60;0.80;;;4.30;99.90;;;;;;5007718;28;20232;-78
2023/03/15 09:49:43;;;;;;;24.83;2.43;;;4.10;99.90;;;;;;4990997;28;20220;-77
2023/03/15 09:52:24;;;;;;;15.57;2.43;;;4.10;99.90;;;;;;4991216;28;20228;-78
2023/03/15 09:54:56;;;;;;;15.00;1.63;;;4.40;99.90;;;;;;4987537;28;20255;-77
2023/03/15 09:57:30;;;;;;;13.27;1.67;;;4.80;99.90;;;;;;4975347;28;20256;-79
2023/03/15 09:59:59;;;;;;;4.93;1.00;;;5.30;99.90;;;;;;4984927;28;20771;-78
2023/03/15 10:02:29;;;;;;;8.10;1.20;;;5.90;99.90;;;;;;4981151;28;20271;-79
2023/03/15 10:05:00;;;;;;;4.10;1.10;;;6.50;99.90;;;;;;4999963;28;20225;-79
2023/03/15 10:07:27;;;;;;;2.23;1.10;;;7.20;99.90;;;;;;4992861;28;20236;-79
2023/03/15 10:09:57;;;;;;;1.97;1.10;;;7.80;99.90;;;;;;4988801;28;20237;-79
2023/03/15 10:12:29;;;;;;;4.70;1.17;;;8.30;99.90;;;;;;4990568;28;20236;-79
2023/03/15 10:15:20;;;;;;;3.63;1.00;;;8.80;99.90;;;;;;4987984;28;20222;-79
2023/03/15 10:18:03;;;;;;;7.93;1.40;;;9.20;99.90;;;;;;4984662;28;20214;-80
2023/03/15 10:20:33;;;;;;;10.00;2.03;;;9.50;99.90;;;;;;4981364;28;20333;-80
2023/03/15 10:23:05;;;;;;;3.83;1.03;;;9.50;99.90;;;;;;4983201;28;20247;-79
2023/03/15 10:25:32;;;;;;;3.40;1.30;;;9.40;99.90;;;;;;4996539;28;20708;-77
2023/03/15 10:28:03;;;;;;;4.07;1.10;;;9.00;99.90;;;;;;4991564;28;20652;-78
2023/03/15 10:30:32;;;;;;;19.80;2.00;;;8.50;99.90;;;;;;4975960;28;20252;-79
2023/03/15 10:33:04;;;;;;;4.10;1.00;;;8.10;99.90;;;;;;4979775;28;20618;-79
2023/03/15 10:35:31;;;;;;;51.97;3.67;;;7.70;99.90;;;;;;4995541;28;20696;-79
2023/03/15 10:37:59;;;;;;;5.97;1.47;;;7.50;99.90;;;;;;4984743;28;20648;-80
2023/03/15 10:40:39;;;;;;;4.50;1.30;;;7.50;99.90;;;;;;4993647;28;20621;-80
2023/03/15 10:43:16;;;;;;;4.30;1.47;;;7.60;99.90;;;;;;4991865;28;20260;-80
2023/03/15 10:45:47;;;;;;;15.57;2.17;;;7.60;99.90;;;;;;5012644;28;20281;-81
2023/03/15 10:48:15;;;;;;;134.90;8.37;;;7.60;99.90;;;;;;4994483;28;20244;-81
2023/03/15 10:50:42;;;;;;;208.90;13.80;;;7.70;99.90;;;;;;4992082;28;20229;-81
2023/03/15 10:53:10;;;;;;;4.90;1.73;;;7.90;99.90;;;;;;4987568;28;20221;-79
2023/03/15 10:55:43;;;;;;;9.07;2.00;;;8.10;99.90;;;;;;4986380;28;20229;-79
2023/03/15 10:58:20;;;;;;;14.10;2.37;;;8.40;99.90;;;;;;4990430;28;20221;-79
2023/03/15 11:00:51;;;;;;;4.53;1.60;;;8.70;99.90;;;;;;4988887;28;20213;-80
2023/03/15 11:03:21;;;;;;;4.50;2.00;;;8.90;99.90;;;;;;4989271;28;20228;-79
2023/03/15 11:05:50;;;;;;;3.20;1.20;;;9.10;99.90;;;;;;4993718;28;20995;-79
2023/03/15 11:08:18;;;;;;;6.80;1.47;;;9.00;99.90;;;;;;4989414;28;20229;-79
2023/03/15 11:10:47;;;;;;;5.73;1.27;;;8.90;99.90;;;;;;4995942;28;20308;-79
2023/03/15 11:13:20;;;;;;;4.77;1.30;;;8.70;99.90;;;;;;4994481;28;20234;-79
2023/03/15 11:15:54;;;;;;;6.40;1.57;;;8.30;99.90;;;;;;4992640;28;20223;-79
2023/03/15 11:18:27;;;;;;;6.43;0.93;;;8.10;99.90;;;;;;4997198;28;20223;-79
2023/03/15 11:20:56;;;;;;;2.63;0.80;;;7.90;99.90;;;;;;4991866;28;20229;-79
2023/03/15 11:23:25;;;;;;;1.93;0.90;;;7.90;99.90;;;;;;4994357;28;20233;-82
2023/03/15 11:25:53;;;;;;;3.47;0.93;;;7.90;99.90;;;;;;4988965;28;20267;-79
2023/03/15 11:28:23;;;;;;;3.20;1.10;;;7.80;99.90;;;;;;4987415;28;20221;-79
2023/03/15 11:30:50;;;;;;;2.40;0.97;;;7.80;99.90;;;;;;4989937;28;20228;-79
2023/03/15 11:33:32;;;;;;;1.90;0.70;;;7.90;99.90;;;;;;4991645;28;20714;-79
2023/03/15 11:36:01;;;;;;;3.00;0.87;;;7.90;99.90;;;;;;4994495;28;20235;-79
2023/03/15 11:38:32;;;;;;;3.30;0.80;;;8.00;99.90;;;;;;4985487;28;20225;-79
2023/03/15 11:41:02;;;;;;;2.63;1.30;;;8.00;99.90;;;;;;4983022;28;20222;-79
2023/03/15 11:43:41;;;;;;;3.17;0.77;;;8.10;99.90;;;;;;4984770;28;20229;-79
2023/03/15 11:46:14;;;;;;;3.73;1.10;;;8.10;99.90;;;;;;5000516;28;20344;-79
2023/03/15 11:48:52;;;;;;;2.80;0.87;;;8.20;99.90;;;;;;4985271;28;20230;-79
2023/03/15 11:51:19;;;;;;;3.97;1.23;;;8.20;99.90;;;;;;4998836;28;20228;-80
2023/03/15 11:53:50;;;;;;;3.27;1.20;;;8.30;99.90;;;;;;4986577;28;20228;-82
2023/03/15 11:56:23;;;;;;;3.03;1.30;;;8.30;99.90;;;;;;4987681;28;20732;-79
2023/03/15 11:59:05;;;;;;;2.63;1.00;;;8.30;99.90;;;;;;4989297;28;20289;-78
2023/03/15 12:01:34;;;;;;;2.73;1.00;;;8.10;99.90;;;;;;5005486;28;21100;-79
2023/03/15 12:04:27;;;;;;;4.83;0.90;;;7.80;99.90;;;;;;5014530;23;20244;-80
2023/03/15 12:06:55;;;;;;;2.93;1.00;;;7.40;99.90;;;;;;4987235;28;20236;-79
2023/03/15 12:09:48;;;;;;;4.10;1.20;;;6.90;99.90;;;;;;4989222;28;20240;-80
2023/03/15 12:12:56;;;;;;;2.50;1.00;;;6.40;99.90;;;;;;4998414;28;20311;-80
2023/03/15 12:15:44;;;;;;;4.77;1.17;;;5.90;99.90;;;;;;4922277;29;20245;-79
2023/03/15 12:18:16;;;;;;;5.97;1.10;;;5.50;99.90;;;;;;4905878;29;20309;-80
2023/03/15 12:20:51;;;;;;;2.87;1.00;;;5.30;99.90;;;;;;4946767;28;20308;-80
2023/03/15 12:23:37;;;;;;;4.23;1.07;;;5.00;99.90;;;;;;4966931;28;20314;-80
2023/03/15 12:26:10;;;;;;;7.03;1.27;;;4.80;99.90;;;;;;4992009;28;20278;-80
2023/03/15 12:28:40;;;;;;;3.87;1.03;;;4.70;99.90;;;;;;4975293;28;20726;-80
2023/03/15 12:31:11;;;;;;;4.47;1.30;;;4.60;99.90;;;;;;4981079;28;20225;-80
2023/03/15 12:33:47;;;;;;;4.37;1.10;;;4.70;99.90;;;;;;4982251;28;20331;-79
2023/03/15 12:36:34;;;;;;;6.83;1.07;;;4.80;99.90;;;;;;4977788;28;21037;-80
2023/03/15 12:39:19;;;;;;;4.53;1.10;;;5.00;99.90;;;;;;4992078;28;20303;-80
2023/03/15 12:41:48;;;;;;;3.40;1.10;;;5.20;99.90;;;;;;4978861;28;20225;-79
2023/03/15 12:44:33;;;;;;;1.70;1.00;;;5.40;99.90;;;;;;4963896;28;20233;-79
2023/03/15 12:47:01;;;;;;;2.60;0.97;;;5.70;99.90;;;;;;4986629;28;20639;-79
2023/03/15 12:49:38;;;;;;;4.47;1.40;;;5.90;99.90;;;;;;4984498;28;20255;-80
2023/03/15 12:52:27;;;;;;;3.53;1.00;;;6.10;99.90;;;;;;4976346;28;20241;-80
2023/03/15 12:54:59;;;;;;;4.60;1.40;;;6.20;99.90;;;;;;4965270;28;20237;-80
2023/03/15 12:57:29;;;;;;;4.17;0.87;;;6.20;99.90;;;;;;4969020;28;20222;-80
2023/03/15 12:59:58;;;;;;;4.27;1.17;;;6.30;99.90;;;;;;4984398;28;20962;-79
2023/03/15 13:02:32;;;;;;;4.40;1.20;;;6.30;99.90;;;;;;4978564;28;20228;-80
2023/03/15 13:05:15;;;;;;;3.67;0.93;;;6.40;99.90;;;;;;4980657;28;20231;-80
2023/03/15 13:07:54;;;;;;;4.87;1.17;;;6.40;99.90;;;;;;4982977;28;20570;-80
2023/03/15 13:10:30;;;;;;;4.80;1.20;;;6.50;99.90;;;;;;4986795;28;20582;-80
2023/03/15 13:13:03;;;;;;;3.00;1.13;;;6.60;99.90;;;;;;4971889;28;20235;-80
2023/03/15 13:15:36;;;;;;;4.90;1.23;;;6.60;99.90;;;;;;4984753;28;20219;-80
2023/03/15 13:18:16;;;;;;;4.63;1.07;;;6.60;99.90;;;;;;4989162;28;20251;-80